Details for Transavia (France) at LFPO




Go Back


Latest METAR
Local Time

LFPO 252200Z 03009KT 6000 FEW006 FEW066CB BKN090 16/16 Q1016 RESHRA NOSIG

26/05/2018, 00:19:22

Description
Results
Transavia (France) Logo
Number of Pilots based at LFPO
0 Pilots Based here
Number of Transavia (France) Flights Departed from LFPO
5 Flights Departed
Number of Transavia (France) Flights Arrived at LFPO
5 Flights Arrived
Number of Transavia (France) Schedules Departing from LFPO
166 Schedules
Number of Transavia (France) Schedules Arriving at LFPO
175 Schedules
Number of Transavia (France) Schedules Departing from LFPO availible today
54 Schedules Today
Number of Transavia (France) Schedules Arriving at LFPO availible today
56 Schedules Today
Average Landing Rate at LFPO
-216 fpm
Transavia (France) Average Landing Rate at LFPO
-103 fpm
Total Fuel Purchased at LFPO by Transavia (France)
19,862.35 kgs / 43,788.54 lbs

Pilots Based at LFPO


Pilot ID
Pilot Name
Pilot Rank
No. of Flights
No. of Flying Hours
There are no pilots assigned to this hub!   Will you be the first?
Content